UTAVUTST

Guest
Details From UTAV - TURKMENABAT
To UTST - TERMEZ
Flight Number -
Tags generated
Created
Modified
Stats Distance 212 nm / 392 km
Max Altitude 21,400 ft / 6,523 m
Waypoints 3
Social Downloads 0
Likes 0
Share VATSIM

Download

Looking for another format? Having issues loading an existing format? Contact us
Advertisement - Login to hide

Notes

Basic altitude profile: - Ascent Rate: 2500ft/min - Ascent Speed: 250kts - Cruise Altitude: 35000ft - Cruise Speed: 420kts - Descent Rate: 1500ft/min - Descent Speed: 250kts Options: - Use NATs: yes - Use PACOTS: yes - Use low airways: yes - Use high airways: yes

Route

UTAV ATAMT UTST

ID Type Via Altitude Latitude Longitude Leg Dist Tot Dist Heading (true) Name
O UTAV APT - 0 ft / 0 m 39.08333˚ 63.61333˚ - 0 nm - TURKMENABAT
ATAMT FIX - 21,400 ft / 6,523 m 37.81667˚ 65.21667˚ 107 nm 107 nm 135° / 136° -
O UTST APT - 0 ft / 0 m 37.28667˚ 67.30917˚ 104 nm 211 nm 107° / 108° TERMEZ

Altitude Profile

Advertisement - Login to hide

Weather


0- 5 10 15 20 25 30 35+ Temperature / ° C

Clouds and Precipitation
Forecast for 2017-12-17 06:00 UTC. Updated 2 hours ago

Ground ~20,000 ft ~40,000 ft Winds

UTAV

Details ICAO UTAV
Name TURKMENABAT
Region Tajikistan, Turkmenistan and Uzbekistan
Timezone Asia/Ashgabat (UTC+5.0)
Stats Elevation 630 ft / 192 m (AMSL)
Location 39.083333° 63.613334°
Runways 1
Magnetic Variation 5.048° E

METAR

UTAV 170200Z 03003KT 7000 BKN033 00/M03 Q1029 NOSIG

Decode

TAF

TAF UTAV 161630Z 1618/1718 36012KT 2000 BR BKN010 530001 TEMPO 1618/1624 VRB04KT 0400 FZFG VV002 TEMPO 1700/1706 0200 FZFG FZDZ VV001 BECMG 1706/1707 5000 BKN008

Decode

Departure Runways

ID Width Length Bearing (true) Bearing (mag) Surface Threshold Offset Overrun Length
15 138 ft / 42 m 8,945 ft / 2,727 m 155.02° 149.97° Asphalt 0 ft / 0 m 0 ft / 0 m
33 138 ft / 42 m 8,945 ft / 2,727 m 335.03° 329.98° Asphalt 0 ft / 0 m 0 ft / 0 m

UTST

Details ICAO UTST (TMJ)
Name TERMEZ
Region Tajikistan, Turkmenistan and Uzbekistan
Timezone Asia/Samarkand (UTC+5.0)
Stats Elevation 1,027 ft / 313 m (AMSL)
Location 37.286667° 67.309167°
Runways 1
Magnetic Variation 4.145° E

METAR

UTST 170230Z 00000KT 8000 NSC 04/M02 Q1027 R88/CLRD70 NOSIG

Decode

TAF

TAF UTST 161700Z 1618/1718 VRB06KT 5000 BR SCT050CB BKN100 TEMPO 1618/1622 02010G20KT 2000 BR FU TEMPO 1622/1704 1000 BR TEMPO 1704/1715 09010G20KT 6000 NSW BKN050CB BKN100

Decode

Destination Runways

ID Width Length Bearing (true) Bearing (mag) Surface Threshold Offset Overrun Length
07 138 ft / 42 m 9,510 ft / 2,899 m 75.17° 71.02° Concrete 0 ft / 0 m 164 ft / 50 m
25 138 ft / 42 m 9,510 ft / 2,899 m 255.19° 251.04° Concrete 0 ft / 0 m 164 ft / 50 m

Approach Navaids

Runway Type Ident Frequency Range Bearing (true) Bearing (mag) Slope Elevation
25 Localiser INO 110.30 MHz 18 nm / 33 km 254.33° 250.18° - 1,027 ft / 313 m (AMSL)
25 Glidescope INO 110.30 MHz 10 nm / 19 km 255.18° 251.03° 2.40° 1,027 ft / 313 m (AMSL)